Time;durP1;ratioP1;P1;durP2;ratioP2;P2;SDS_P1;SDS_P2;PMS_P1;PMS_P2;Temp;Humidity;BMP_temperature;BMP_pressure;BME280_temperature;BME280_humidity;BME280_pressure;Samples;Min_cycle;Max_cycle;Signal;HPM_P1;HPM_P2
2023/05/21 00:02:13;;;;;;;9.43;7.22;;;14.10;99.90;;;;;;5111714;28;20023;-75
2023/05/21 00:04:41;;;;;;;8.95;6.60;;;14.10;99.90;;;;;;5111444;28;20058;-75
2023/05/21 00:07:07;;;;;;;10.93;6.82;;;14.10;99.90;;;;;;5111813;28;20027;-75
2023/05/21 00:09:33;;;;;;;14.27;7.28;;;14.00;99.90;;;;;;5111654;28;20106;-75
2023/05/21 00:11:59;;;;;;;9.82;6.95;;;14.00;99.90;;;;;;5111494;28;20042;-75
2023/05/21 00:14:25;;;;;;;12.02;6.72;;;14.10;99.90;;;;;;5111499;28;20395;-75
2023/05/21 00:16:50;;;;;;;9.18;7.22;;;14.00;99.90;;;;;;5093353;28;20031;-75
2023/05/21 00:19:16;;;;;;;14.40;7.18;;;14.00;99.90;;;;;;5111487;28;20051;-76
2023/05/21 00:21:44;;;;;;;8.35;6.55;;;14.00;99.90;;;;;;5111566;28;20020;-75
2023/05/21 00:24:10;;;;;;;11.20;7.93;;;13.90;99.90;;;;;;5092738;28;20507;-75
2023/05/21 00:26:36;;;;;;;11.40;7.32;;;13.90;99.90;;;;;;5093299;28;20020;-75
2023/05/21 00:29:02;;;;;;;9.60;7.25;;;13.80;99.90;;;;;;5111310;28;20115;-75
2023/05/21 00:31:28;;;;;;;9.98;7.38;;;13.80;99.90;;;;;;5111527;28;20031;-75
2023/05/21 00:33:54;;;;;;;10.90;7.20;;;13.70;99.90;;;;;;5111355;28;20020;-75
2023/05/21 00:36:22;;;;;;;9.75;7.32;;;13.70;99.90;;;;;;5112753;28;20027;-75
2023/05/21 00:38:51;;;;;;;8.63;6.88;;;13.70;99.90;;;;;;5096498;28;20015;-76
2023/05/21 00:41:17;;;;;;;13.20;7.57;;;13.70;99.90;;;;;;5115098;28;20016;-75
2023/05/21 00:43:43;;;;;;;17.13;6.95;;;13.70;99.90;;;;;;5114953;28;20035;-75
2023/05/21 00:46:18;;;;;;;10.48;7.72;;;13.60;99.90;;;;;;5096491;28;20128;-75
2023/05/21 00:48:45;;;;;;;12.15;7.60;;;13.60;99.90;;;;;;5096447;28;20028;-75
2023/05/21 00:51:14;;;;;;;9.07;6.78;;;13.60;99.90;;;;;;5114803;28;20028;-75
2023/05/21 00:53:40;;;;;;;10.23;7.25;;;13.60;99.90;;;;;;5114725;28;20026;-75
2023/05/21 00:56:06;;;;;;;11.10;7.15;;;13.60;99.90;;;;;;5114462;28;20094;-75
2023/05/21 00:58:33;;;;;;;10.45;7.07;;;13.60;99.90;;;;;;5096267;28;20042;-75
2023/05/21 01:01:02;;;;;;;9.02;6.70;;;13.60;99.90;;;;;;5114688;28;20099;-75
2023/05/21 01:03:37;;;;;;;10.43;6.63;;;13.60;99.90;;;;;;5114626;28;20024;-75
2023/05/21 01:06:04;;;;;;;11.00;7.55;;;13.50;99.90;;;;;;5114417;28;20541;-75
2023/05/21 01:08:29;;;;;;;9.98;7.45;;;13.40;99.90;;;;;;5114313;28;20023;-75
2023/05/21 01:10:56;;;;;;;12.38;7.07;;;13.40;99.90;;;;;;5114390;28;20077;-75
2023/05/21 01:13:23;;;;;;;12.38;7.28;;;13.40;99.90;;;;;;5114217;28;20107;-75
2023/05/21 01:15:50;;;;;;;10.90;7.35;;;13.40;99.90;;;;;;5114225;28;20028;-75
2023/05/21 01:18:15;;;;;;;11.15;6.88;;;13.30;99.90;;;;;;5114198;28;20498;-75
2023/05/21 01:20:46;;;;;;;9.20;7.35;;;13.40;99.90;;;;;;5114402;28;20028;-75
2023/05/21 01:23:15;;;;;;;10.75;7.75;;;13.40;99.90;;;;;;5113588;28;20027;-75
2023/05/21 01:25:41;;;;;;;11.13;6.30;;;13.40;99.90;;;;;;5114017;28;20020;-75
2023/05/21 01:28:07;;;;;;;10.50;7.13;;;13.40;99.90;;;;;;5114043;28;20106;-75
2023/05/21 01:30:34;;;;;;;9.02;7.35;;;13.40;99.90;;;;;;5114112;28;20032;-75
2023/05/21 01:33:13;;;;;;;12.63;7.65;;;13.30;99.90;;;;;;5095544;28;20119;-75
2023/05/21 01:35:45;;;;;;;12.68;7.22;;;13.30;99.90;;;;;;5114157;28;20108;-75
2023/05/21 01:38:25;;;;;;;11.82;7.60;;;13.20;99.90;;;;;;5113822;28;20483;-75
2023/05/21 01:41:05;;;;;;;9.43;7.05;;;13.20;99.90;;;;;;5113966;28;20399;-74
2023/05/21 01:43:34;;;;;;;12.65;8.05;;;13.10;99.90;;;;;;5113628;28;20019;-75
2023/05/21 01:46:01;;;;;;;11.63;7.65;;;13.10;99.90;;;;;;5113705;28;20477;-75
2023/05/21 01:48:28;;;;;;;10.07;7.03;;;13.10;99.90;;;;;;5095230;28;20035;-75
2023/05/21 01:50:58;;;;;;;10.13;7.07;;;13.20;99.90;;;;;;5094531;28;20023;-75
2023/05/21 01:53:24;;;;;;;12.15;7.75;;;13.20;99.90;;;;;;5094760;28;20020;-75
2023/05/21 01:55:50;;;;;;;10.98;7.43;;;13.20;99.90;;;;;;5113041;28;20016;-75
2023/05/21 01:58:17;;;;;;;10.52;7.50;;;13.20;99.90;;;;;;5113281;28;20084;-75
2023/05/21 02:00:44;;;;;;;11.07;7.22;;;13.20;99.90;;;;;;5113349;28;20020;-75
2023/05/21 02:03:10;;;;;;;13.43;7.93;;;13.10;99.90;;;;;;5095091;28;20557;-75
2023/05/21 02:05:36;;;;;;;9.48;7.30;;;13.10;99.90;;;;;;5094980;28;20024;-75
2023/05/21 02:08:01;;;;;;;11.43;9.02;;;13.00;99.90;;;;;;5113215;28;20432;-75
2023/05/21 02:10:27;;;;;;;10.05;7.07;;;13.10;99.90;;;;;;5113219;28;20034;-75
2023/05/21 02:12:52;;;;;;;12.38;8.57;;;13.00;99.90;;;;;;5113053;28;20059;-76
2023/05/21 02:15:18;;;;;;;9.82;7.30;;;13.00;99.90;;;;;;5112975;28;20110;-75
2023/05/21 02:17:50;;;;;;;11.93;7.38;;;13.00;99.90;;;;;;5094528;28;20039;-75
2023/05/21 02:20:16;;;;;;;10.38;6.82;;;12.90;99.90;;;;;;5113003;28;20606;-75
2023/05/21 02:22:44;;;;;;;11.77;7.90;;;12.90;99.90;;;;;;5112744;28;20395;-75
2023/05/21 02:25:11;;;;;;;11.30;7.30;;;12.80;99.90;;;;;;5112756;28;20027;-74
2023/05/21 02:27:38;;;;;;;10.57;7.63;;;12.80;99.90;;;;;;5094613;28;20064;-74
2023/05/21 02:30:05;;;;;;;11.43;7.88;;;12.90;99.90;;;;;;5112857;28;20479;-75
2023/05/21 02:32:31;;;;;;;8.82;6.88;;;12.80;99.90;;;;;;5094062;28;20053;-75
2023/05/21 02:34:57;;;;;;;10.93;7.18;;;12.80;99.90;;;;;;5094092;28;20080;-75
2023/05/21 02:37:26;;;;;;;15.50;8.02;;;12.70;99.90;;;;;;5094268;28;20027;-75
2023/05/21 02:39:52;;;;;;;11.88;8.13;;;12.80;99.90;;;;;;5112787;28;20019;-75
2023/05/21 02:42:18;;;;;;;9.75;7.53;;;12.80;99.90;;;;;;5112754;28;20031;-75
2023/05/21 02:44:43;;;;;;;10.32;7.63;;;12.80;99.90;;;;;;5112379;28;20542;-75
2023/05/21 02:47:11;;;;;;;10.45;7.53;;;12.70;99.90;;;;;;5112597;28;20034;-75
2023/05/21 02:49:37;;;;;;;12.02;8.05;;;12.70;99.90;;;;;;5112498;28;20031;-75
2023/05/21 02:52:03;;;;;;;11.30;7.60;;;12.70;99.90;;;;;;5112540;28;20028;-75
2023/05/21 02:54:28;;;;;;;12.50;7.85;;;12.60;99.90;;;;;;5112270;28;20226;-77
2023/05/21 02:56:54;;;;;;;11.15;7.03;;;12.50;99.90;;;;;;5112525;28;20100;-76
2023/05/21 02:59:20;;;;;;;11.95;7.72;;;12.60;99.90;;;;;;5093591;28;20019;-76
2023/05/21 03:01:45;;;;;;;10.98;7.75;;;12.60;99.90;;;;;;5112398;28;20089;-76
2023/05/21 03:04:11;;;;;;;14.68;8.05;;;12.50;99.90;;;;;;5094007;28;20422;-75
2023/05/21 03:06:36;;;;;;;11.20;8.35;;;12.60;99.90;;;;;;5093930;28;20023;-75
2023/05/21 03:09:04;;;;;;;12.23;8.60;;;12.50;99.90;;;;;;5111967;28;20028;-76
2023/05/21 03:11:30;;;;;;;11.18;7.43;;;12.40;99.90;;;;;;5112234;28;20104;-75
2023/05/21 03:13:56;;;;;;;12.18;8.25;;;12.50;99.90;;;;;;5093718;28;20031;-75
2023/05/21 03:16:21;;;;;;;12.75;8.05;;;12.40;99.90;;;;;;5112120;28;20027;-75
2023/05/21 03:18:47;;;;;;;11.55;8.60;;;12.40;99.90;;;;;;5111998;28;20026;-76
2023/05/21 03:21:14;;;;;;;13.68;9.48;;;12.40;99.90;;;;;;5094022;28;20026;-75
2023/05/21 03:23:40;;;;;;;13.10;8.52;;;12.30;99.90;;;;;;5111427;28;20064;-75
2023/05/21 03:26:06;;;;;;;11.93;8.32;;;12.40;99.90;;;;;;5111927;28;20035;-75
2023/05/21 03:28:32;;;;;;;13.45;9.20;;;12.40;99.90;;;;;;5111979;28;20076;-75
2023/05/21 03:30:58;;;;;;;11.38;8.30;;;12.40;99.90;;;;;;5112097;28;20023;-75
2023/05/21 03:33:24;;;;;;;8.75;7.45;;;12.40;99.90;;;;;;5112007;28;20030;-75
2023/05/21 03:35:49;;;;;;;15.95;8.80;;;12.50;99.90;;;;;;5111890;28;20208;-75
2023/05/21 03:38:15;;;;;;;12.60;7.82;;;12.60;99.90;;;;;;5093483;28;20019;-76
2023/05/21 03:40:41;;;;;;;14.00;8.48;;;12.60;99.90;;;;;;5111968;28;20020;-75
2023/05/21 03:43:06;;;;;;;14.45;8.48;;;12.70;99.90;;;;;;5111966;28;20027;-75
2023/05/21 03:45:32;;;;;;;10.18;8.05;;;12.70;99.90;;;;;;5093505;28;20031;-75
2023/05/21 03:47:58;;;;;;;10.82;7.85;;;12.70;99.90;;;;;;5111814;28;20031;-76
2023/05/21 03:50:23;;;;;;;12.93;7.25;;;12.80;99.90;;;;;;5093733;28;20039;-75
2023/05/21 03:52:49;;;;;;;11.32;7.55;;;12.80;99.90;;;;;;5111826;28;20106;-75
2023/05/21 03:55:15;;;;;;;14.25;8.10;;;12.90;99.90;;;;;;5111699;28;20023;-75
2023/05/21 04:00:08;;;;;;;11.95;7.88;;;13.00;99.90;;;;;;5030578;28;20042;-77
2023/05/21 04:02:34;;;;;;;11.50;8.73;;;13.00;99.90;;;;;;5032208;28;20029;-77
2023/05/21 04:05:00;;;;;;;11.30;7.68;;;13.10;99.90;;;;;;5030877;28;20033;-77
2023/05/21 04:07:25;;;;;;;10.77;7.70;;;13.20;99.90;;;;;;5031616;28;20033;-77
2023/05/21 04:09:52;;;;;;;15.32;8.30;;;13.30;99.90;;;;;;5030587;28;20041;-77
2023/05/21 04:12:18;;;;;;;9.18;6.95;;;13.40;99.90;;;;;;5034957;28;20025;-77
2023/05/21 04:14:46;;;;;;;12.18;8.70;;;13.40;99.90;;;;;;5017442;28;20030;-77
2023/05/21 04:17:11;;;;;;;14.65;8.38;;;13.50;99.90;;;;;;5035629;28;20033;-77
2023/05/21 04:19:37;;;;;;;11.35;7.63;;;13.50;99.90;;;;;;5018249;28;20390;-77
2023/05/21 04:22:04;;;;;;;11.60;8.27;;;13.50;99.90;;;;;;5018182;28;20022;-77
2023/05/21 04:24:30;;;;;;;10.75;7.90;;;13.60;99.90;;;;;;5035098;28;20021;-77
2023/05/21 04:27:00;;;;;;;11.68;7.47;;;13.60;99.90;;;;;;5035457;28;20478;-77
2023/05/21 04:29:26;;;;;;;14.65;8.50;;;13.70;99.90;;;;;;5017665;28;20064;-77
2023/05/21 04:31:52;;;;;;;13.40;8.40;;;13.80;99.90;;;;;;5034838;28;20458;-77
2023/05/21 04:34:17;;;;;;;12.05;7.93;;;13.90;99.90;;;;;;5035136;28;20029;-77
2023/05/21 04:36:44;;;;;;;13.63;8.25;;;14.10;99.90;;;;;;5017537;28;20021;-77
2023/05/21 04:39:11;;;;;;;11.88;8.93;;;14.20;99.90;;;;;;5016955;28;20060;-77
2023/05/21 04:41:37;;;;;;;11.48;8.38;;;14.30;99.90;;;;;;5034996;28;20068;-77
2023/05/21 04:44:07;;;;;;;15.45;8.57;;;14.30;99.90;;;;;;5018764;28;20041;-77
2023/05/21 04:46:33;;;;;;;11.43;7.60;;;14.50;99.90;;;;;;5021451;28;20039;-77
2023/05/21 04:49:02;;;;;;;13.82;8.50;;;14.50;99.90;;;;;;5021896;28;20145;-77
2023/05/21 04:51:29;;;;;;;14.45;8.43;;;14.60;99.90;;;;;;5039366;28;20026;-77
2023/05/21 04:53:56;;;;;;;19.83;10.75;;;14.80;99.90;;;;;;5021195;28;20029;-77
2023/05/21 04:56:25;;;;;;;13.23;8.45;;;14.80;99.90;;;;;;5038706;28;20018;-77
2023/05/21 04:58:52;;;;;;;9.65;7.22;;;15.00;99.90;;;;;;5020187;28;20026;-77
2023/05/21 05:01:21;;;;;;;12.10;7.90;;;15.10;99.90;;;;;;5038444;28;20080;-77
2023/05/21 05:03:47;;;;;;;15.43;8.70;;;15.20;99.90;;;;;;5037517;28;20478;-77
2023/05/21 05:06:12;;;;;;;13.18;8.15;;;15.30;99.90;;;;;;5036621;28;20040;-76
2023/05/21 05:08:38;;;;;;;10.90;7.72;;;15.50;99.90;;;;;;5037024;28;20447;-76
2023/05/21 05:11:04;;;;;;;12.40;7.07;;;15.60;99.90;;;;;;5018136;28;20497;-75
2023/05/21 05:13:29;;;;;;;12.63;8.02;;;15.80;99.90;;;;;;5033845;28;20068;-76
2023/05/21 05:15:56;;;;;;;11.75;8.15;;;15.90;99.90;;;;;;5033886;28;20025;-75
2023/05/21 05:18:22;;;;;;;11.63;7.97;;;16.10;99.90;;;;;;5033701;28;20108;-75
2023/05/21 05:20:47;;;;;;;10.70;7.95;;;16.10;99.90;;;;;;5035201;28;20057;-76
2023/05/21 05:23:13;;;;;;;12.77;7.68;;;16.20;99.90;;;;;;5016004;28;20033;-76
2023/05/21 05:25:39;;;;;;;13.50;7.70;;;16.40;99.90;;;;;;5034066;28;20025;-76
2023/05/21 05:28:04;;;;;;;11.05;7.70;;;16.50;99.90;;;;;;5015660;28;20025;-76
2023/05/21 05:30:30;;;;;;;12.32;8.52;;;16.60;99.90;;;;;;5017313;28;20032;-76
2023/05/21 05:32:56;;;;;;;9.93;7.72;;;16.80;99.90;;;;;;5036100;28;20032;-77
2023/05/21 05:35:21;;;;;;;13.07;7.72;;;16.90;99.90;;;;;;5018093;28;20018;-77
2023/05/21 05:37:47;;;;;;;10.40;7.18;;;17.10;99.90;;;;;;5033601;28;20022;-77
2023/05/21 05:40:13;;;;;;;11.23;6.97;;;17.30;99.90;;;;;;5016197;28;20061;-77
2023/05/21 05:42:39;;;;;;;16.70;7.65;;;17.40;99.90;;;;;;5015694;28;20124;-76
2023/05/21 05:45:05;;;;;;;9.23;7.15;;;17.50;99.90;;;;;;5015789;28;20071;-77
2023/05/21 05:47:31;;;;;;;10.48;7.13;;;17.60;99.90;;;;;;5033467;28;20033;-77
2023/05/21 05:49:56;;;;;;;10.15;7.10;;;17.80;99.90;;;;;;5033276;28;20026;-77
2023/05/21 05:52:22;;;;;;;8.80;7.03;;;17.90;99.90;;;;;;5015581;28;20171;-77
2023/05/21 05:54:48;;;;;;;10.23;6.75;;;18.20;99.90;;;;;;5015547;28;20363;-76
2023/05/21 05:57:13;;;;;;;16.15;9.85;;;18.20;99.90;;;;;;5015471;28;20478;-76
2023/05/21 05:59:39;;;;;;;19.13;10.10;;;18.40;99.90;;;;;;5033010;28;20041;-76
2023/05/21 06:02:05;;;;;;;16.13;8.93;;;18.40;99.90;;;;;;5015467;28;20030;-77
2023/05/21 06:04:31;;;;;;;8.68;6.93;;;18.50;99.90;;;;;;5033041;28;20025;-77
2023/05/21 06:06:57;;;;;;;8.32;6.07;;;18.80;99.90;;;;;;5015512;28;20393;-76
2023/05/21 06:09:23;;;;;;;7.70;5.88;;;18.90;99.90;;;;;;5015322;28;20088;-77
2023/05/21 06:11:49;;;;;;;8.25;6.07;;;19.00;99.90;;;;;;5033148;28;20031;-77
2023/05/21 06:14:14;;;;;;;9.77;5.63;;;19.10;99.90;;;;;;5043020;28;20018;-78
2023/05/21 06:16:40;;;;;;;6.45;5.32;;;19.20;99.90;;;;;;5043053;28;20026;-78
2023/05/21 06:19:06;;;;;;;7.57;6.22;;;19.30;99.90;;;;;;5040790;28;20041;-78
2023/05/21 06:21:31;;;;;;;7.90;5.85;;;19.40;99.90;;;;;;5020479;28;20080;-78
2023/05/21 06:23:58;;;;;;;7.60;6.07;;;19.50;99.90;;;;;;5020435;28;20402;-77
2023/05/21 06:26:24;;;;;;;9.30;6.28;;;19.50;99.90;;;;;;5036499;28;20025;-77
2023/05/21 06:28:49;;;;;;;7.45;5.40;;;19.70;99.90;;;;;;5018390;28;20091;-77
2023/05/21 06:31:15;;;;;;;8.45;5.05;;;19.80;99.90;;;;;;5018044;28;20025;-77
2023/05/21 06:33:41;;;;;;;6.88;5.18;;;19.80;99.90;;;;;;5016695;28;20038;-77
2023/05/21 06:36:07;;;;;;;10.35;5.90;;;19.80;99.90;;;;;;5037456;28;20017;-78
2023/05/21 06:38:32;;;;;;;7.97;5.20;;;19.90;99.90;;;;;;5019843;28;20047;-78
2023/05/21 06:40:58;;;;;;;9.63;5.63;;;20.00;99.90;;;;;;5019077;28;20474;-79
2023/05/21 06:43:24;;;;;;;5.68;4.53;;;20.10;99.80;;;;;;5039556;28;20041;-78
2023/05/21 06:45:49;;;;;;;7.75;5.53;;;20.20;99.90;;;;;;5019812;28;20084;-77
2023/05/21 06:48:18;;;;;;;5.78;4.97;;;20.30;99.20;;;;;;5020048;28;20026;-78
2023/05/21 06:50:43;;;;;;;7.55;4.65;;;20.30;98.60;;;;;;5038001;28;20085;-77
2023/05/21 06:53:09;;;;;;;6.45;5.43;;;20.30;98.80;;;;;;5019118;28;20486;-78
2023/05/21 06:55:35;;;;;;;8.00;5.07;;;20.40;97.90;;;;;;5019630;28;20449;-78
2023/05/21 06:58:00;;;;;;;7.50;5.40;;;20.40;98.40;;;;;;5038180;28;20022;-80
2023/05/21 07:00:26;;;;;;;6.65;4.78;;;20.20;97.10;;;;;;5016556;28;20025;-79
2023/05/21 07:02:52;;;;;;;8.35;5.43;;;20.50;98.00;;;;;;5033309;28;20036;-80
2023/05/21 07:05:17;;;;;;;7.00;5.40;;;20.80;98.10;;;;;;5015364;28;20494;-80
2023/05/21 07:07:43;;;;;;;6.95;5.53;;;21.00;97.90;;;;;;5015276;28;20033;-79
2023/05/21 07:10:09;;;;;;;7.28;4.63;;;21.10;96.20;;;;;;5015908;28;20025;-79
2023/05/21 07:12:34;;;;;;;6.65;4.85;;;21.40;96.70;;;;;;5033307;28;20044;-80
2023/05/21 07:15:00;;;;;;;4.80;4.30;;;21.50;94.00;;;;;;5015184;28;20024;-80
2023/05/21 07:17:26;;;;;;;6.57;4.10;;;21.60;94.30;;;;;;5014581;28;20080;-80
2023/05/21 07:19:51;;;;;;;10.35;5.07;;;21.60;94.20;;;;;;5015226;28;20080;-79
2023/05/21 07:22:17;;;;;;;5.93;4.97;;;21.70;93.40;;;;;;5014981;28;20021;-80
2023/05/21 07:24:43;;;;;;;7.35;4.88;;;21.70;94.20;;;;;;5032870;28;20026;-80
2023/05/21 07:27:09;;;;;;;5.97;4.70;;;21.50;94.20;;;;;;5033163;28;20022;-80
2023/05/21 07:29:35;;;;;;;6.75;4.75;;;21.40;94.50;;;;;;5032265;28;20022;-79
2023/05/21 07:32:01;;;;;;;9.80;5.15;;;21.30;95.10;;;;;;5014870;28;20461;-79
2023/05/21 07:34:27;;;;;;;5.90;4.65;;;21.20;95.00;;;;;;5014640;28;20022;-79
2023/05/21 07:36:53;;;;;;;8.15;4.90;;;21.30;94.50;;;;;;5016419;28;20685;-80
2023/05/21 07:39:18;;;;;;;9.80;4.75;;;21.50;94.10;;;;;;5033836;28;20454;-80
2023/05/21 07:41:44;;;;;;;6.65;5.18;;;21.50;93.70;;;;;;5034117;28;20026;-80
2023/05/21 07:44:10;;;;;;;6.85;4.25;;;21.60;93.30;;;;;;5018080;28;20029;-80
2023/05/21 07:46:36;;;;;;;6.60;5.35;;;21.70;93.60;;;;;;5019763;28;20493;-80
2023/05/21 07:49:01;;;;;;;5.43;4.45;;;21.90;92.90;;;;;;5019698;28;20032;-80
2023/05/21 07:51:27;;;;;;;8.80;4.15;;;22.00;92.60;;;;;;5019774;28;20025;-79
2023/05/21 07:53:53;;;;;;;8.93;4.72;;;22.10;91.00;;;;;;5037145;28;20033;-80
2023/05/21 07:56:19;;;;;;;8.43;4.13;;;22.30;91.40;;;;;;5019341;28;20029;-80
2023/05/21 07:58:46;;;;;;;5.47;3.78;;;22.60;90.50;;;;;;5018632;28;20037;-79
2023/05/21 08:01:12;;;;;;;6.57;4.25;;;22.90;89.10;;;;;;5020881;28;20032;-79
2023/05/21 08:03:37;;;;;;;5.13;3.90;;;23.10;88.80;;;;;;5019366;28;20025;-79
2023/05/21 08:06:03;;;;;;;5.47;4.00;;;23.10;88.40;;;;;;5018755;28;20025;-80
2023/05/21 08:08:29;;;;;;;5.45;3.90;;;23.30;86.70;;;;;;5018696;28;20554;-80
2023/05/21 08:10:55;;;;;;;7.00;4.35;;;23.30;88.90;;;;;;5019250;28;20494;-80
2023/05/21 08:13:20;;;;;;;9.80;4.50;;;23.30;84.40;;;;;;5018837;28;20032;-80
2023/05/21 08:15:47;;;;;;;5.90;3.65;;;23.40;87.10;;;;;;5036560;28;20018;-79
2023/05/21 08:18:13;;;;;;;6.15;3.70;;;23.40;83.50;;;;;;5036357;28;20113;-79
2023/05/21 08:20:38;;;;;;;5.25;3.65;;;23.50;83.90;;;;;;5036772;28;20064;-79
2023/05/21 08:23:04;;;;;;;3.67;3.38;;;23.70;83.10;;;;;;5018445;28;20025;-79
2023/05/21 08:25:30;;;;;;;6.45;4.15;;;23.70;81.50;;;;;;5018493;28;20101;-78
2023/05/21 08:27:56;;;;;;;4.45;3.75;;;23.60;82.00;;;;;;5016977;28;20025;-78
2023/05/21 08:30:22;;;;;;;6.03;4.30;;;23.20;81.50;;;;;;5035065;28;20025;-77
2023/05/21 08:32:48;;;;;;;5.00;3.63;;;23.50;82.00;;;;;;5035454;28;20030;-80
2023/05/21 08:35:13;;;;;;;5.97;4.18;;;23.50;82.60;;;;;;5017896;28;20053;-80
2023/05/21 08:37:39;;;;;;;4.00;3.58;;;23.50;81.50;;;;;;5036119;28;20021;-81
2023/05/21 08:40:05;;;;;;;6.90;3.88;;;23.50;81.60;;;;;;5018477;28;20124;-81
2023/05/21 08:42:44;;;;;;;4.90;4.03;;;23.60;81.80;;;;;;5035920;28;20053;-80
2023/05/21 08:45:12;;;;;;;4.47;3.90;;;23.70;80.80;;;;;;5018105;28;20025;-80
2023/05/21 08:47:40;;;;;;;7.50;4.20;;;23.90;82.40;;;;;;5035931;28;20394;-80
2023/05/21 08:50:12;;;;;;;4.88;4.38;;;24.00;80.10;;;;;;5036150;28;20029;-80
2023/05/21 08:52:38;;;;;;;10.88;5.25;;;23.90;78.90;;;;;;5035724;28;20057;-79
2023/05/21 08:55:04;;;;;;;4.95;4.13;;;23.90;78.90;;;;;;5035763;28;20505;-80
2023/05/21 08:57:30;;;;;;;5.63;3.72;;;23.80;79.00;;;;;;5034978;28;20371;-79
2023/05/21 08:59:57;;;;;;;4.65;3.55;;;23.90;81.20;;;;;;5017735;28;20120;-80
2023/05/21 09:02:23;;;;;;;5.88;4.28;;;24.10;82.00;;;;;;5017964;28;20033;-79
2023/05/21 09:04:55;;;;;;;4.30;3.45;;;24.30;78.50;;;;;;5035652;28;20051;-79
2023/05/21 09:07:29;;;;;;;5.60;3.85;;;24.20;75.80;;;;;;5017154;28;20021;-78
2023/05/21 09:10:04;;;;;;;3.95;3.55;;;24.40;76.00;;;;;;5036123;28;20402;-79
2023/05/21 09:12:31;;;;;;;4.43;3.92;;;24.30;74.50;;;;;;5018208;28;20022;-79
2023/05/21 09:14:57;;;;;;;4.88;3.75;;;24.20;74.80;;;;;;5036096;28;20014;-80
2023/05/21 09:17:23;;;;;;;4.43;4.00;;;24.60;78.30;;;;;;5018133;28;20033;-79
2023/05/21 09:20:09;;;;;;;4.18;3.78;;;24.80;78.80;;;;;;5035348;28;20052;-79
2023/05/21 09:22:40;;;;;;;4.32;3.30;;;24.70;75.80;;;;;;5016981;28;20029;-80
2023/05/21 09:25:07;;;;;;;7.72;4.45;;;24.70;74.80;;;;;;5017355;28;20102;-80
2023/05/21 09:27:34;;;;;;;4.45;3.58;;;24.50;78.90;;;;;;5035615;28;20532;-80
2023/05/21 09:30:04;;;;;;;4.07;3.65;;;24.70;78.40;;;;;;5017070;28;20516;-80
2023/05/21 09:32:29;;;;;;;4.25;3.40;;;24.90;77.10;;;;;;5034857;28;20029;-79
2023/05/21 09:34:55;;;;;;;3.58;3.10;;;25.20;72.50;;;;;;5035289;28;20021;-79
2023/05/21 09:37:24;;;;;;;4.28;3.05;;;25.10;70.80;;;;;;5034923;28;20021;-80
2023/05/21 09:39:50;;;;;;;7.20;3.33;;;25.30;67.60;;;;;;5035200;28;20018;-79
2023/05/21 09:42:20;;;;;;;4.22;2.80;;;25.50;66.30;;;;;;5017804;28;20087;-79
2023/05/21 09:44:46;;;;;;;4.65;3.72;;;25.50;66.80;;;;;;5040125;28;20044;-79
2023/05/21 09:47:17;;;;;;;5.63;3.72;;;25.80;65.30;;;;;;5036636;28;20060;-80
2023/05/21 09:49:43;;;;;;;4.78;3.30;;;25.80;63.10;;;;;;5051677;28;20022;-80
2023/05/21 09:52:09;;;;;;;3.38;3.00;;;25.90;65.90;;;;;;5017565;28;20478;-80
2023/05/21 09:54:34;;;;;;;4.15;3.22;;;26.00;65.20;;;;;;5035406;28;20021;-79
2023/05/21 09:57:03;;;;;;;5.53;3.08;;;25.80;63.10;;;;;;5017828;28;20022;-80
2023/05/21 09:59:39;;;;;;;6.15;2.97;;;25.80;63.20;;;;;;5043975;22;20037;-75
2023/05/21 10:02:19;;;;;;;5.22;2.95;;;25.80;63.90;;;;;;5032040;28;20041;-77
2023/05/21 10:04:48;;;;;;;3.22;2.75;;;25.90;64.10;;;;;;5031684;28;20403;-76
2023/05/21 10:07:24;;;;;;;4.28;3.15;;;25.70;65.70;;;;;;5032952;28;20097;-75
2023/05/21 10:09:53;;;;;;;3.70;2.83;;;25.90;65.20;;;;;;5033366;28;20017;-76
2023/05/21 10:12:23;;;;;;;5.80;3.25;;;26.10;64.80;;;;;;5033585;28;20024;-76
2023/05/21 10:15:12;;;;;;;8.68;3.70;;;26.30;61.40;;;;;;5033497;28;20108;-76
2023/05/21 10:17:39;;;;;;;3.60;3.20;;;26.20;60.00;;;;;;5033063;28;20013;-76
2023/05/21 10:20:09;;;;;;;4.10;3.53;;;26.00;62.10;;;;;;5032961;28;20041;-75
2023/05/21 10:22:36;;;;;;;4.18;3.42;;;26.10;62.50;;;;;;5033069;28;20095;-75
2023/05/21 10:25:02;;;;;;;3.38;3.08;;;26.00;63.60;;;;;;5033039;28;20492;-76
2023/05/21 10:27:29;;;;;;;3.38;2.95;;;26.00;61.90;;;;;;5032809;28;20105;-76
2023/05/21 10:29:57;;;;;;;4.47;3.65;;;26.00;61.40;;;;;;5033517;28;20532;-76
2023/05/21 10:32:26;;;;;;;3.88;3.13;;;26.10;62.40;;;;;;5035129;28;20069;-77
2023/05/21 10:34:53;;;;;;;6.90;2.97;;;26.10;61.70;;;;;;5033862;28;20021;-77
2023/05/21 10:37:22;;;;;;;3.40;2.97;;;26.30;61.30;;;;;;5034779;28;20478;-77
2023/05/21 10:39:49;;;;;;;4.90;3.45;;;26.30;61.00;;;;;;5033838;28;20037;-78
2023/05/21 10:42:32;;;;;;;7.30;3.47;;;26.70;63.70;;;;;;5033865;28;20108;-77
2023/05/21 10:45:15;;;;;;;4.88;3.40;;;26.80;60.50;;;;;;5032936;28;20061;-76
2023/05/21 10:47:50;;;;;;;3.17;2.88;;;26.80;57.90;;;;;;5034325;28;20032;-77
2023/05/21 10:50:44;;;;;;;4.63;3.03;;;26.80;59.90;;;;;;5035132;28;20474;-77
2023/05/21 10:53:21;;;;;;;3.88;2.97;;;26.80;57.80;;;;;;5032432;28;20026;-76
2023/05/21 10:56:11;;;;;;;3.83;3.05;;;27.00;58.00;;;;;;5031331;28;20025;-78
2023/05/21 10:59:11;;;;;;;4.07;2.97;;;27.20;59.00;;;;;;5034417;28;20029;-77
2023/05/21 11:01:39;;;;;;;4.25;3.05;;;27.10;59.60;;;;;;5031598;28;20044;-77
2023/05/21 11:04:06;;;;;;;4.05;2.78;;;27.10;57.70;;;;;;5031194;28;20029;-77
2023/05/21 11:06:32;;;;;;;3.70;3.17;;;27.00;59.30;;;;;;5032353;28;20052;-77
2023/05/21 11:09:10;;;;;;;5.15;3.30;;;27.00;60.10;;;;;;5032852;28;20478;-78
2023/05/21 11:11:49;;;;;;;11.25;4.90;;;27.10;60.50;;;;;;5032665;28;20331;-77
2023/05/21 11:14:57;;;;;;;5.20;2.70;;;27.00;57.90;;;;;;5031535;28;20021;-76
2023/05/21 11:17:38;;;;;;;4.55;3.17;;;26.90;58.30;;;;;;5016575;28;20398;-77
2023/05/21 11:20:07;;;;;;;5.78;3.28;;;26.50;56.30;;;;;;5033063;28;20024;-77
2023/05/21 11:22:35;;;;;;;3.97;3.28;;;26.40;59.50;;;;;;5032869;28;20030;-76
2023/05/21 11:25:02;;;;;;;6.43;3.60;;;26.60;59.40;;;;;;5031341;28;20072;-77
2023/05/21 11:27:41;;;;;;;4.60;3.72;;;26.50;60.40;;;;;;5032213;28;20026;-77
2023/05/21 11:30:24;;;;;;;4.72;3.45;;;26.60;57.40;;;;;;5032233;28;20033;-76
2023/05/21 11:33:09;;;;;;;3.75;3.35;;;26.90;59.30;;;;;;5030796;28;20025;-77
2023/05/21 11:35:44;;;;;;;4.45;3.85;;;27.30;58.90;;;;;;5032986;28;20018;-76
2023/05/21 11:38:10;;;;;;;5.50;3.20;;;27.40;58.90;;;;;;5030513;28;20026;-77
2023/05/21 11:40:36;;;;;;;5.72;3.28;;;27.30;59.10;;;;;;5030653;28;20021;-77
2023/05/21 11:43:02;;;;;;;4.35;3.03;;;27.30;58.80;;;;;;5032161;28;20030;-77
2023/05/21 11:45:30;;;;;;;4.05;3.13;;;27.30;57.00;;;;;;5030568;28;20445;-77
2023/05/21 11:47:56;;;;;;;9.05;3.60;;;27.10;58.80;;;;;;5031685;28;20425;-77
2023/05/21 11:50:21;;;;;;;6.63;3.97;;;27.10;60.00;;;;;;5030402;28;20029;-77
2023/05/21 11:52:48;;;;;;;6.40;3.88;;;27.10;57.10;;;;;;5031808;28;20030;-77
2023/05/21 11:55:14;;;;;;;4.55;3.25;;;27.20;58.10;;;;;;5031721;28;20018;-77
2023/05/21 11:57:43;;;;;;;11.18;3.85;;;27.20;57.40;;;;;;5031866;28;20036;-76
2023/05/21 12:00:14;;;;;;;8.00;3.45;;;26.70;55.90;;;;;;5032214;28;20088;-77
2023/05/21 12:02:45;;;;;;;5.75;3.65;;;26.90;58.20;;;;;;5030738;28;20512;-77
2023/05/21 12:05:11;;;;;;;3.38;3.08;;;27.00;60.30;;;;;;5031483;28;20030;-77
2023/05/21 12:07:37;;;;;;;5.68;3.15;;;27.20;58.30;;;;;;5034038;28;20030;-77
2023/05/21 12:10:03;;;;;;;6.43;3.40;;;27.50;55.90;;;;;;5032723;28;20026;-77
2023/05/21 12:12:31;;;;;;;8.38;3.92;;;27.30;56.00;;;;;;5033779;28;20080;-77
2023/05/21 12:14:57;;;;;;;9.77;2.95;;;27.00;57.50;;;;;;5034075;28;20017;-77
2023/05/21 12:17:24;;;;;;;6.95;4.47;;;27.20;59.70;;;;;;5034468;28;20026;-77
2023/05/21 12:19:52;;;;;;;6.30;3.33;;;27.40;57.50;;;;;;5032026;28;20482;-76
2023/05/21 12:22:18;;;;;;;5.88;3.35;;;27.40;55.90;;;;;;5033357;28;20022;-77
2023/05/21 12:24:45;;;;;;;4.22;3.72;;;27.50;58.30;;;;;;5030719;28;20470;-75
2023/05/21 12:27:12;;;;;;;4.63;3.60;;;27.10;58.30;;;;;;5030726;28;20041;-76
2023/05/21 12:29:42;;;;;;;5.53;3.65;;;27.10;56.50;;;;;;5032961;28;20030;-77
2023/05/21 12:32:13;;;;;;;4.88;3.42;;;26.90;59.20;;;;;;5031699;28;20026;-77
2023/05/21 12:34:44;;;;;;;6.63;4.03;;;27.10;59.40;;;;;;5035930;28;20053;-76
2023/05/21 12:37:31;;;;;;;3.78;2.88;;;27.30;58.10;;;;;;5038260;28;20021;-76
2023/05/21 12:40:03;;;;;;;7.82;3.60;;;27.70;57.10;;;;;;5037720;28;20026;-77
2023/05/21 12:42:33;;;;;;;4.55;3.25;;;27.70;56.80;;;;;;5039025;28;20029;-76
2023/05/21 12:45:04;;;;;;;5.53;3.35;;;27.60;56.60;;;;;;5037740;28;20487;-76
2023/05/21 12:47:31;;;;;;;4.35;3.17;;;27.60;56.70;;;;;;5041382;28;20022;-77
2023/05/21 12:49:58;;;;;;;5.85;3.30;;;27.60;58.10;;;;;;5039701;28;20037;-76